createdAt,value
2022-11-04T00:00:31.483Z,93897.66
2022-11-04T00:01:28.191Z,93897.34
2022-11-04T00:02:24.996Z,93868.13
2022-11-04T00:03:21.630Z,93903.97
2022-11-04T00:04:20.258Z,93897.16
2022-11-04T00:05:16.931Z,93893.44
2022-11-04T00:06:13.575Z,93897.97
2022-11-04T00:07:30.068Z,93892.38
2022-11-04T00:08:26.719Z,93872.09
2022-11-04T00:09:25.711Z,93876.94
2022-11-04T00:10:42.267Z,93896.22
2022-11-04T00:11:57.785Z,93893.81
2022-11-04T00:12:54.466Z,93897.06
2022-11-04T00:13:51.358Z,93879.06
2022-11-04T00:14:47.924Z,93873.38
2022-11-04T00:16:03.113Z,93900.66
2022-11-04T00:17:21.052Z,93900.41
2022-11-04T00:18:17.622Z,93907.06
2022-11-04T00:19:14.347Z,93906.25
2022-11-04T00:20:30.101Z,93870.19
2022-11-04T00:21:46.030Z,93898.44
2022-11-04T00:23:01.567Z,93897.00
2022-11-04T00:24:16.422Z,93898.63
2022-11-04T00:25:32.168Z,93824.47
2022-11-04T00:26:47.313Z,93871.72
2022-11-04T00:28:02.437Z,93899.28
2022-11-04T00:28:58.977Z,93895.13
2022-11-04T00:29:55.637Z,93864.25
2022-11-04T00:30:57.486Z,93895.44
2022-11-04T00:32:12.621Z,93895.84
2022-11-04T00:33:27.465Z,93892.00
2022-11-04T00:34:24.005Z,93891.56
2022-11-04T00:35:21.314Z,93875.13
2022-11-04T00:36:18.537Z,93885.03
2022-11-04T00:37:15.061Z,93885.03
2022-11-04T00:38:11.601Z,93872.34
2022-11-04T00:39:08.151Z,93831.13
2022-11-04T00:40:05.309Z,93879.69
2022-11-04T00:41:01.866Z,93879.22
2022-11-04T00:41:58.505Z,93867.44
2022-11-04T00:42:55.048Z,93884.84
2022-11-04T00:44:00.419Z,93884.66
2022-11-04T00:44:56.974Z,93874.94
2022-11-04T00:45:53.512Z,93887.03
2022-11-04T00:46:50.109Z,93887.66
2022-11-04T00:47:46.665Z,93882.81
2022-11-04T00:48:43.205Z,93849.44
2022-11-04T00:49:39.798Z,93873.72
2022-11-04T00:50:36.476Z,93872.34
2022-11-04T00:51:33.121Z,93873.38
2022-11-04T00:52:29.683Z,93869.53
2022-11-04T00:53:26.245Z,93873.56
2022-11-04T00:54:22.917Z,93805.91
2022-11-04T00:55:19.496Z,93864.28
2022-11-04T00:56:16.040Z,93866.19
2022-11-04T00:57:13.745Z,93866.91
2022-11-04T00:58:10.501Z,93865.47
2022-11-04T00:59:10.334Z,93863.28
2022-11-04T01:00:10.717Z,93850.41
2022-11-04T01:01:09.476Z,93867.97
2022-11-04T01:02:10.944Z,93830.78
2022-11-04T01:03:07.925Z,93860.63
2022-11-04T01:04:04.904Z,93856.25
2022-11-04T01:05:01.502Z,93861.41
2022-11-04T01:05:58.538Z,93859.50
2022-11-04T01:06:55.533Z,93863.94
2022-11-04T01:07:52.226Z,93858.44
2022-11-04T01:08:49.267Z,93846.69
2022-11-04T01:09:45.813Z,93858.63
2022-11-04T01:10:44.808Z,93850.47
2022-11-04T01:11:41.391Z,93855.56
2022-11-04T01:12:38.137Z,93849.19
2022-11-04T01:13:35.536Z,93846.88
2022-11-04T01:14:32.121Z,93849.03
2022-11-04T01:15:28.647Z,93769.94
2022-11-04T01:17:24.034Z,93846.34
2022-11-04T01:18:20.994Z,93842.91
2022-11-04T01:19:17.990Z,93849.94
2022-11-04T01:20:14.609Z,93857.47
2022-11-04T01:21:13.367Z,93852.19
2022-11-04T01:22:10.285Z,93809.72
2022-11-04T01:23:06.840Z,93854.19
2022-11-04T01:24:03.991Z,93847.94
2022-11-04T01:25:00.537Z,93842.31
2022-11-04T01:25:57.118Z,93843.97
2022-11-04T01:26:53.667Z,93846.34
2022-11-04T01:27:50.255Z,93815.88
2022-11-04T01:28:47.496Z,93844.00
2022-11-04T01:29:44.093Z,93843.84
2022-11-04T01:30:40.702Z,93841.91
2022-11-04T01:31:37.312Z,93844.38
2022-11-04T01:32:33.875Z,93842.16
2022-11-04T01:33:30.505Z,93800.59
2022-11-04T01:34:27.108Z,93837.81
2022-11-04T01:35:23.683Z,93826.50
2022-11-04T01:36:21.924Z,93837.38
2022-11-04T01:37:18.483Z,93818.66
2022-11-04T01:38:15.033Z,93843.31
2022-11-04T01:39:12.140Z,93822.84
2022-11-04T01:40:09.163Z,93829.34
2022-11-04T01:41:07.949Z,93832.38
2022-11-04T01:43:18.191Z,93835.16
2022-11-04T01:44:42.500Z,93835.34
2022-11-04T01:45:39.046Z,93836.53
2022-11-04T01:46:43.809Z,93827.00
2022-11-04T01:47:44.135Z,93840.88
2022-11-04T01:48:40.818Z,93834.72
2022-11-04T01:49:43.357Z,93836.69
2022-11-04T01:50:40.591Z,93836.34
2022-11-04T01:51:40.136Z,93838.22
2022-11-04T01:52:42.658Z,93842.88
2022-11-04T01:53:40.623Z,93826.09
2022-11-04T01:54:38.861Z,93830.00
2022-11-04T01:55:45.231Z,93826.06
2022-11-04T01:56:44.340Z,93823.41
2022-11-04T01:57:45.200Z,93822.66
2022-11-04T01:58:51.201Z,93814.31
2022-11-04T01:59:47.826Z,93820.66
2022-11-04T02:00:44.870Z,93824.91
2022-11-04T02:01:42.849Z,93832.34
2022-11-04T02:03:03.754Z,93833.69
2022-11-04T02:04:19.597Z,93822.56
2022-11-04T02:05:16.385Z,93826.69
2022-11-04T02:06:14.137Z,93818.44
2022-11-04T02:07:12.134Z,93822.41
2022-11-04T02:08:09.732Z,93824.31
2022-11-04T02:09:06.357Z,93821.06
2022-11-04T02:10:03.720Z,93810.81
2022-11-04T02:11:02.922Z,93816.84
2022-11-04T02:12:18.560Z,93804.72
2022-11-04T02:13:15.160Z,93815.75
2022-11-04T02:14:11.770Z,93814.09
2022-11-04T02:15:08.904Z,93816.91
2022-11-04T02:16:25.282Z,93802.28
2022-11-04T02:17:43.354Z,93802.03
2022-11-04T02:19:13.618Z,93809.78
2022-11-04T02:20:22.569Z,93807.56
2022-11-04T02:21:24.957Z,93798.78
2022-11-04T02:22:33.549Z,93803.81
2022-11-04T02:24:01.952Z,93803.59
2022-11-04T02:25:35.751Z,93820.28
2022-11-04T02:26:57.715Z,93806.69
2022-11-04T02:28:12.538Z,93807.56
2022-11-04T02:29:43.230Z,93813.28
2022-11-04T02:31:03.301Z,93808.31
2022-11-04T02:32:18.831Z,93809.94
2022-11-04T02:33:39.523Z,93803.09
2022-11-04T02:34:45.084Z,93801.13
2022-11-04T02:36:12.586Z,93800.94
2022-11-04T02:37:28.709Z,93806.97
2022-11-04T02:38:28.116Z,93802.03
2022-11-04T02:39:44.351Z,93802.94
2022-11-04T02:40:53.887Z,93797.78
2022-11-04T02:41:58.625Z,93801.00
2022-11-04T02:43:20.112Z,93797.56
2022-11-04T02:44:27.552Z,93795.19
2022-11-04T02:45:33.120Z,93796.31
2022-11-04T02:46:37.058Z,93788.56
2022-11-04T02:47:39.977Z,93794.69
2022-11-04T02:48:41.363Z,93780.91
2022-11-04T02:50:00.827Z,93795.72
2022-11-04T02:51:07.226Z,93787.34
2022-11-04T02:52:18.847Z,93796.31
2022-11-04T02:53:20.695Z,93787.47
2022-11-04T02:54:27.417Z,93803.22
2022-11-04T02:55:31.113Z,93800.34
2022-11-04T02:56:30.386Z,93770.88
2022-11-04T02:57:32.232Z,93796.88
2022-11-04T02:58:37.297Z,93794.84
2022-11-04T02:59:42.181Z,93776.34
2022-11-04T03:00:41.221Z,93804.78
2022-11-04T03:01:42.094Z,93809.28
2022-11-04T03:02:46.337Z,93805.38
2022-11-04T03:03:52.991Z,93797.75
2022-11-04T03:04:52.573Z,93805.94
2022-11-04T03:05:52.596Z,93804.72
2022-11-04T03:06:50.920Z,93796.50
2022-11-04T03:07:50.208Z,93800.44
2022-11-04T03:08:51.306Z,93797.03
2022-11-04T03:09:52.018Z,93793.47
2022-11-04T03:10:55.124Z,93746.84
2022-11-04T03:11:57.683Z,93792.09
2022-11-04T03:12:59.625Z,93793.94
2022-11-04T03:14:07.802Z,93800.09
2022-11-04T03:15:09.880Z,93794.31
2022-11-04T03:16:12.982Z,93799.84
2022-11-04T03:17:20.652Z,93782.78
2022-11-04T03:18:49.543Z,93791.34
2022-11-04T03:20:00.219Z,93788.84
2022-11-04T03:21:01.810Z,93742.53
2022-11-04T03:22:00.214Z,93796.16
2022-11-04T03:23:00.119Z,93777.66
2022-11-04T03:23:56.957Z,93792.91
2022-11-04T03:24:54.024Z,93802.28
2022-11-04T03:25:57.796Z,93789.94
2022-11-04T03:27:32.776Z,93792.88
2022-11-04T03:28:44.728Z,93795.78
2022-11-04T03:29:56.616Z,93789.22
2022-11-04T03:30:57.405Z,93792.66
2022-11-04T03:32:00.162Z,93788.84
2022-11-04T03:33:05.942Z,93784.66
2022-11-04T03:34:02.798Z,93756.31
2022-11-04T03:34:59.635Z,93782.22
2022-11-04T03:35:56.839Z,93747.00
2022-11-04T03:36:53.519Z,93800.72
2022-11-04T03:37:50.305Z,93792.09
2022-11-04T03:38:47.196Z,93787.63
2022-11-04T03:39:44.151Z,93799.28
2022-11-04T03:40:40.944Z,93778.63
2022-11-04T03:41:52.673Z,93800.09
2022-11-04T03:43:13.113Z,93795.56
2022-11-04T03:44:09.920Z,93751.31
2022-11-04T03:45:06.953Z,93789.38
2022-11-04T03:46:03.706Z,93789.66
2022-11-04T03:47:00.356Z,93792.25
2022-11-04T03:47:58.133Z,93765.19
2022-11-04T03:48:55.737Z,93785.16
2022-11-04T03:50:01.391Z,93793.03
2022-11-04T03:50:59.173Z,93750.09
2022-11-04T03:51:55.828Z,93791.38
2022-11-04T03:52:52.764Z,93789.13
2022-11-04T03:53:49.710Z,93794.78
2022-11-04T03:54:47.576Z,93756.88
2022-11-04T03:56:08.693Z,93790.19
2022-11-04T03:57:26.641Z,93754.75
2022-11-04T03:58:35.328Z,93783.13
2022-11-04T03:59:53.432Z,93789.97
2022-11-04T04:01:03.500Z,93792.16
2022-11-04T04:02:04.552Z,93780.22
2022-11-04T04:03:15.963Z,93711.44
2022-11-04T04:04:16.961Z,93785.59
2022-11-04T04:05:39.490Z,93787.56
2022-11-04T04:06:36.885Z,93790.00
2022-11-04T04:07:41.933Z,93791.47
2022-11-04T04:08:44.392Z,93785.91
2022-11-04T04:10:01.637Z,93789.47
2022-11-04T04:11:06.157Z,93782.25
2022-11-04T04:12:14.047Z,93780.81
2022-11-04T04:13:20.130Z,93780.09
2022-11-04T04:14:40.199Z,93776.66
2022-11-04T04:16:14.089Z,93778.41
2022-11-04T04:17:22.238Z,93774.16
2022-11-04T04:18:26.611Z,93783.50
2022-11-04T04:19:24.199Z,93780.81
2022-11-04T04:20:24.972Z,93772.34
2022-11-04T04:21:29.031Z,93732.22
2022-11-04T04:22:30.791Z,93769.56
2022-11-04T04:23:49.548Z,93789.13
2022-11-04T04:25:07.841Z,93769.78
2022-11-04T04:26:27.863Z,93720.41
2022-11-04T04:27:30.996Z,93771.13
2022-11-04T04:28:27.706Z,93729.47
2022-11-04T04:29:26.369Z,93771.59
2022-11-04T04:30:23.137Z,93777.94
2022-11-04T04:31:39.478Z,93772.31
2022-11-04T04:32:41.639Z,93769.69
2022-11-04T04:33:38.900Z,93764.47
2022-11-04T04:34:36.172Z,93729.78
2022-11-04T04:35:43.300Z,93763.00
2022-11-04T04:36:51.808Z,93767.97
2022-11-04T04:37:49.209Z,93762.56
2022-11-04T04:39:04.424Z,93771.69
2022-11-04T04:40:24.820Z,93760.94
2022-11-04T04:41:53.984Z,93765.81
2022-11-04T04:43:11.425Z,93748.25
2022-11-04T04:44:47.253Z,93767.84
2022-11-04T04:45:50.444Z,93771.59
2022-11-04T04:46:52.244Z,93774.84
2022-11-04T04:47:48.976Z,93773.31
2022-11-04T04:48:45.709Z,93773.50
2022-11-04T04:50:01.578Z,93780.94
2022-11-04T04:51:02.113Z,93780.38
2022-11-04T04:51:58.684Z,93772.84
2022-11-04T04:52:59.051Z,93781.84
2022-11-04T04:53:55.676Z,93777.63
2022-11-04T04:54:52.242Z,93772.16
2022-11-04T04:55:48.823Z,93775.28
2022-11-04T04:56:45.357Z,93770.28
2022-11-04T04:57:42.303Z,93776.81
2022-11-04T04:58:38.874Z,93778.16
2022-11-04T04:59:35.421Z,93772.63
2022-11-04T05:00:33.325Z,93782.03
2022-11-04T05:01:30.057Z,93777.28
2022-11-04T05:02:26.867Z,93771.75
2022-11-04T05:03:24.717Z,93779.78
2022-11-04T05:04:21.269Z,93741.25
2022-11-04T05:05:18.925Z,93783.28
2022-11-04T05:06:15.573Z,93783.94
2022-11-04T05:07:12.316Z,93753.00
2022-11-04T05:08:09.476Z,93757.31
2022-11-04T05:09:06.225Z,93777.50
2022-11-04T05:10:02.947Z,93772.72
2022-11-04T05:10:59.553Z,93774.03
2022-11-04T05:11:56.106Z,93774.72
2022-11-04T05:13:11.035Z,93785.78
2022-11-04T05:14:07.602Z,93782.94
2022-11-04T05:15:04.540Z,93774.97
2022-11-04T05:16:10.573Z,93773.63
2022-11-04T05:17:07.205Z,93777.25
2022-11-04T05:18:03.967Z,93773.41
2022-11-04T05:19:00.580Z,93781.16
2022-11-04T05:19:57.130Z,93776.38
2022-11-04T05:20:53.658Z,93776.28
2022-11-04T05:21:50.204Z,93775.59
2022-11-04T05:22:46.733Z,93766.84
2022-11-04T05:23:43.349Z,93751.47
2022-11-04T05:24:39.889Z,93783.50
2022-11-04T05:25:36.427Z,93788.91
2022-11-04T05:26:33.132Z,93772.28
2022-11-04T05:27:29.753Z,93746.25
2022-11-04T05:28:26.506Z,93774.16
2022-11-04T05:29:23.248Z,93784.59
2022-11-04T05:30:19.958Z,93787.72
2022-11-04T05:31:16.971Z,93782.03
2022-11-04T05:32:13.531Z,93792.81
2022-11-04T05:33:10.598Z,93790.25
2022-11-04T05:34:09.949Z,93796.78
2022-11-04T05:35:06.845Z,93784.59
2022-11-04T05:36:07.507Z,93791.84
2022-11-04T05:37:04.127Z,93788.75
2022-11-04T05:38:00.793Z,93775.44
2022-11-04T05:38:57.347Z,93726.50
2022-11-04T05:39:54.042Z,93796.16
2022-11-04T05:40:50.578Z,93797.28
2022-11-04T05:41:47.150Z,93799.06
2022-11-04T05:42:43.830Z,93803.06
2022-11-04T05:43:40.373Z,93809.94
2022-11-04T05:44:36.936Z,93793.50
2022-11-04T05:45:33.492Z,93803.53
2022-11-04T05:46:30.683Z,93802.38
2022-11-04T05:47:27.245Z,93805.63
2022-11-04T05:48:23.831Z,93814.75
2022-11-04T05:49:20.372Z,93805.78
2022-11-04T05:50:17.056Z,93810.56
2022-11-04T05:51:19.257Z,93805.53
2022-11-04T05:52:15.900Z,93804.31
2022-11-04T05:53:12.758Z,93769.69
2022-11-04T05:54:09.457Z,93812.38
2022-11-04T05:55:06.552Z,93784.88
2022-11-04T05:56:03.167Z,93815.91
2022-11-04T05:56:59.742Z,93757.00
2022-11-04T05:57:58.085Z,93760.72
2022-11-04T05:58:55.302Z,93815.59
2022-11-04T05:59:51.868Z,93816.06
2022-11-04T06:00:48.433Z,93813.31
2022-11-04T06:01:45.096Z,93819.28
2022-11-04T06:02:41.815Z,93804.53
2022-11-04T06:03:38.639Z,93814.38
2022-11-04T06:04:35.299Z,93825.75
2022-11-04T06:05:32.237Z,93812.47
2022-11-04T06:06:31.456Z,93825.72
2022-11-04T06:07:28.018Z,93820.94
2022-11-04T06:08:24.607Z,93815.34
2022-11-04T06:09:21.169Z,93820.47
2022-11-04T06:10:17.968Z,93773.06
2022-11-04T06:11:14.533Z,93819.59
2022-11-04T06:12:16.303Z,93705.06
2022-11-04T06:13:12.881Z,93817.88
2022-11-04T06:14:10.284Z,93818.53
2022-11-04T06:15:09.027Z,93824.13
2022-11-04T06:16:05.848Z,93789.59
2022-11-04T06:17:02.791Z,93819.22
2022-11-04T06:17:59.482Z,93821.38
2022-11-04T06:18:59.956Z,93827.13
2022-11-04T06:20:00.149Z,93822.41
2022-11-04T06:21:11.256Z,93825.94
2022-11-04T06:22:09.937Z,93770.84
2022-11-04T06:23:06.565Z,93821.50
2022-11-04T06:24:03.405Z,93828.25
2022-11-04T06:24:59.943Z,93819.69
2022-11-04T06:25:56.573Z,93828.69
2022-11-04T06:26:53.513Z,93827.59
2022-11-04T06:27:50.174Z,93821.84
2022-11-04T06:28:46.741Z,93803.56
2022-11-04T06:29:43.327Z,93827.97
2022-11-04T06:30:39.875Z,93824.53
2022-11-04T06:31:36.485Z,93820.31
2022-11-04T06:32:33.312Z,93828.09
2022-11-04T06:33:36.337Z,93791.00
2022-11-04T06:34:33.472Z,93830.00
2022-11-04T06:35:30.142Z,93823.19
2022-11-04T06:36:26.729Z,93765.28
2022-11-04T06:37:23.319Z,93761.75
2022-11-04T06:38:19.960Z,93789.00
2022-11-04T06:39:16.809Z,93820.59
2022-11-04T06:40:13.401Z,93799.44
2022-11-04T06:41:16.468Z,93812.19
2022-11-04T06:42:13.112Z,93802.25
2022-11-04T06:43:10.241Z,93780.75
2022-11-04T06:44:07.623Z,93768.09
2022-11-04T06:45:04.814Z,93825.69
2022-11-04T06:46:02.556Z,93822.91
2022-11-04T06:46:59.288Z,93823.41
2022-11-04T06:47:55.872Z,93815.66
2022-11-04T06:48:52.909Z,93822.16
2022-11-04T06:49:49.459Z,93820.50
2022-11-04T06:50:46.171Z,93817.47
2022-11-04T06:51:42.773Z,93820.56
2022-11-04T06:52:42.291Z,93829.44
2022-11-04T06:53:39.350Z,93820.28
2022-11-04T06:54:35.968Z,93811.88
2022-11-04T06:55:32.576Z,93817.88
2022-11-04T06:56:29.221Z,93823.72
2022-11-04T06:57:25.807Z,93814.41
2022-11-04T06:58:22.537Z,93819.88
2022-11-04T06:59:20.760Z,93824.81
2022-11-04T07:00:18.165Z,93821.75
2022-11-04T07:01:21.249Z,93807.56
2022-11-04T07:02:19.236Z,93818.66
2022-11-04T07:03:15.964Z,93821.03
2022-11-04T07:04:12.598Z,93813.06
2022-11-04T07:05:09.363Z,93822.50
2022-11-04T07:06:07.931Z,93817.31
2022-11-04T07:07:04.498Z,93812.81
2022-11-04T07:08:01.130Z,93821.66
2022-11-04T07:09:00.658Z,93822.44
2022-11-04T07:09:57.229Z,93819.69
2022-11-04T07:10:55.309Z,93814.94
2022-11-04T07:11:51.889Z,93814.59
2022-11-04T07:12:48.425Z,93811.03
2022-11-04T07:13:45.277Z,93816.88
2022-11-04T07:14:41.978Z,93815.53
2022-11-04T07:15:40.108Z,93818.28
2022-11-04T07:16:37.103Z,93810.72
2022-11-04T07:17:33.736Z,93809.56
2022-11-04T07:18:30.467Z,93811.41
2022-11-04T07:19:27.136Z,93810.00
2022-11-04T07:20:25.032Z,93754.69
2022-11-04T07:21:21.845Z,93813.72
2022-11-04T07:22:18.411Z,93809.16
2022-11-04T07:23:15.329Z,93799.78
2022-11-04T07:24:11.962Z,93806.34
2022-11-04T07:25:09.431Z,93802.94
2022-11-04T07:26:08.100Z,93789.72
2022-11-04T07:27:06.642Z,93803.09
2022-11-04T07:28:03.283Z,93742.09
2022-11-04T07:29:01.044Z,93769.09
2022-11-04T07:29:57.640Z,93790.38
2022-11-04T07:30:58.997Z,93789.03
2022-11-04T07:31:55.700Z,93739.47
2022-11-04T07:32:53.102Z,93754.88
2022-11-04T07:33:52.643Z,93789.16
2022-11-04T07:34:49.187Z,93793.94
2022-11-04T07:35:45.876Z,93788.81
2022-11-04T07:36:42.574Z,93787.97
2022-11-04T07:37:39.336Z,93781.59
2022-11-04T07:38:35.996Z,93784.63
2022-11-04T07:39:32.569Z,93773.25
2022-11-04T07:40:29.111Z,93783.38
2022-11-04T07:41:27.210Z,93769.03
2022-11-04T07:42:23.825Z,93786.34
2022-11-04T07:43:20.416Z,93774.47
2022-11-04T07:44:17.007Z,93773.16
2022-11-04T07:45:13.622Z,93775.66
2022-11-04T07:46:12.929Z,93770.72
2022-11-04T07:47:09.573Z,93778.34
2022-11-04T07:48:07.312Z,93779.16
2022-11-04T07:49:04.674Z,93775.25
2022-11-04T07:50:05.268Z,93723.66
2022-11-04T07:51:07.266Z,93782.41
2022-11-04T07:52:04.165Z,93778.69
2022-11-04T07:53:01.075Z,93772.69
2022-11-04T07:53:59.133Z,93746.72
2022-11-04T07:54:55.710Z,93778.75
2022-11-04T07:55:52.720Z,93778.38
2022-11-04T07:56:49.278Z,93771.28
2022-11-04T07:57:47.161Z,93745.34
2022-11-04T07:58:43.735Z,93779.41
2022-11-04T07:59:40.386Z,93719.69
2022-11-04T08:00:36.975Z,93764.56
2022-11-04T08:01:34.277Z,93749.53
2022-11-04T08:02:35.016Z,93772.69
2022-11-04T08:03:32.128Z,93763.81
2022-11-04T08:04:28.915Z,93774.81
2022-11-04T08:05:28.246Z,93761.41
2022-11-04T08:06:24.850Z,93773.28
2022-11-04T08:07:21.561Z,93733.84
2022-11-04T08:08:18.168Z,93779.31
2022-11-04T08:09:14.818Z,93763.72
2022-11-04T08:10:11.499Z,93759.75
2022-11-04T08:11:16.851Z,93730.16
2022-11-04T08:12:14.184Z,93758.81
2022-11-04T08:13:11.192Z,93767.78
2022-11-04T08:14:10.082Z,93737.69
2022-11-04T08:15:07.394Z,93761.00
2022-11-04T08:16:12.434Z,93757.44
2022-11-04T08:17:09.913Z,93723.81
2022-11-04T08:18:06.521Z,93763.13
2022-11-04T08:19:03.129Z,93761.44
2022-11-04T08:19:59.695Z,93758.69
2022-11-04T08:20:56.293Z,93751.31
2022-11-04T08:21:52.916Z,93763.44
2022-11-04T08:22:49.497Z,93758.00
2022-11-04T08:23:47.775Z,93742.53
2022-11-04T08:24:47.302Z,93721.44
2022-11-04T08:25:44.847Z,93753.88
2022-11-04T08:26:42.271Z,93755.06
2022-11-04T08:27:38.916Z,93744.78
2022-11-04T08:28:35.566Z,93744.59
2022-11-04T08:29:32.416Z,93752.41
2022-11-04T08:30:29.005Z,93749.63
2022-11-04T08:31:28.655Z,93753.69
2022-11-04T08:32:25.220Z,93755.97
2022-11-04T08:33:23.520Z,93749.78
2022-11-04T08:34:20.958Z,93748.19
2022-11-04T08:35:17.723Z,93743.81
2022-11-04T08:36:20.710Z,93746.91
2022-11-04T08:37:18.104Z,93735.97
2022-11-04T08:38:14.686Z,93741.88
2022-11-04T08:39:12.281Z,93705.03
2022-11-04T08:40:09.550Z,93733.53
2022-11-04T08:41:08.903Z,93734.19
2022-11-04T08:42:06.754Z,93726.75
2022-11-04T08:43:03.834Z,93729.16
2022-11-04T08:44:01.138Z,93723.97
2022-11-04T08:44:57.814Z,93727.78
2022-11-04T08:45:54.479Z,93727.38
2022-11-04T08:46:51.555Z,93726.56
2022-11-04T08:47:48.370Z,93728.13
2022-11-04T08:48:45.493Z,93711.69
2022-11-04T08:49:42.176Z,93719.19
2022-11-04T08:50:39.070Z,93731.06
2022-11-04T08:51:38.174Z,93729.28
2022-11-04T08:52:34.747Z,93684.66
2022-11-04T08:53:31.413Z,93734.25
2022-11-04T08:54:28.016Z,93727.47
2022-11-04T08:55:24.643Z,93719.75
2022-11-04T08:56:24.827Z,93713.31
2022-11-04T08:57:21.410Z,93635.56
2022-11-04T08:58:18.582Z,93724.59
2022-11-04T08:59:15.192Z,93728.53
2022-11-04T09:00:12.361Z,93725.00
2022-11-04T09:01:10.896Z,93715.25
2022-11-04T09:02:08.052Z,93723.47
2022-11-04T09:03:04.985Z,93726.47
2022-11-04T09:04:02.381Z,93685.38
2022-11-04T09:04:59.196Z,93689.59
2022-11-04T09:05:58.143Z,93698.44
2022-11-04T09:06:56.339Z,93713.94
2022-11-04T09:07:52.997Z,93692.66
2022-11-04T09:08:50.840Z,93692.78
2022-11-04T09:09:48.199Z,93707.84
2022-11-04T09:10:46.925Z,93710.50
2022-11-04T09:11:45.220Z,93708.50
2022-11-04T09:12:42.752Z,93708.63
2022-11-04T09:13:40.066Z,93702.03
2022-11-04T09:14:36.974Z,93696.66
2022-11-04T09:15:33.574Z,93699.66
2022-11-04T09:16:31.816Z,93703.56
2022-11-04T09:17:28.389Z,93705.94
2022-11-04T09:18:25.025Z,93710.00
2022-11-04T09:19:21.582Z,93694.38
2022-11-04T09:20:18.286Z,93702.09
2022-11-04T09:21:14.866Z,93693.63
2022-11-04T09:22:11.486Z,93688.66
2022-11-04T09:23:08.617Z,93692.88
2022-11-04T09:24:06.178Z,93695.19
2022-11-04T09:25:03.038Z,93695.19
2022-11-04T09:26:09.254Z,93693.25
2022-11-04T09:27:06.461Z,93666.31
2022-11-04T09:28:04.598Z,93690.16
2022-11-04T09:29:01.427Z,93687.47
2022-11-04T09:29:57.981Z,93696.34
2022-11-04T09:30:54.576Z,93689.41
2022-11-04T09:31:51.225Z,93690.97
2022-11-04T09:32:52.545Z,93686.31
2022-11-04T09:33:50.480Z,93659.78
2022-11-04T09:34:47.023Z,93635.88
2022-11-04T09:35:43.663Z,93677.47
2022-11-04T09:36:40.251Z,93684.41
2022-11-04T09:37:36.812Z,93654.75
2022-11-04T09:38:33.586Z,93677.47
2022-11-04T09:39:30.127Z,93670.91
2022-11-04T09:40:27.934Z,93672.06
2022-11-04T09:41:45.914Z,93662.00
2022-11-04T09:42:45.254Z,93669.72
2022-11-04T09:44:11.785Z,93657.78
2022-11-04T09:45:21.518Z,93665.03
2022-11-04T09:46:19.992Z,93659.16
2022-11-04T09:47:21.692Z,93659.56
2022-11-04T09:48:57.810Z,93653.56
2022-11-04T09:49:58.477Z,93657.84
2022-11-04T09:51:01.389Z,93648.59
2022-11-04T09:51:59.436Z,93653.13
2022-11-04T09:53:07.555Z,93642.75
2022-11-04T09:54:12.521Z,93638.09
2022-11-04T09:55:21.138Z,93654.34
2022-11-04T09:56:20.337Z,93655.91
2022-11-04T09:57:19.165Z,93643.03
2022-11-04T09:58:16.087Z,93644.63
2022-11-04T09:59:25.896Z,93643.78
2022-11-04T10:00:23.202Z,93640.91
2022-11-04T10:01:40.220Z,93632.41
2022-11-04T10:02:54.632Z,93632.81
2022-11-04T10:04:15.470Z,93636.66
2022-11-04T10:05:27.663Z,93628.22
2022-11-04T10:06:30.678Z,93637.84
2022-11-04T10:08:09.103Z,93624.34
2022-11-04T10:09:30.114Z,93628.56
2022-11-04T10:10:34.050Z,93615.88
2022-11-04T10:11:30.624Z,93625.72
2022-11-04T10:12:27.233Z,93618.41
2022-11-04T10:13:53.145Z,93621.09
2022-11-04T10:15:13.603Z,93614.66
2022-11-04T10:16:24.899Z,93609.13
2022-11-04T10:17:45.882Z,93617.31
2022-11-04T10:18:54.574Z,93616.63
2022-11-04T10:20:19.390Z,93610.09
2022-11-04T10:21:39.776Z,93608.59
2022-11-04T10:22:56.066Z,93592.06
2022-11-04T10:24:12.383Z,93595.91
2022-11-04T10:25:16.489Z,93570.13
2022-11-04T10:26:31.005Z,93594.72
2022-11-04T10:27:32.183Z,93596.53
2022-11-04T10:28:37.562Z,93589.63
2022-11-04T10:29:41.048Z,93591.59
2022-11-04T10:30:41.240Z,93590.50
2022-11-04T10:31:41.002Z,93590.91
2022-11-04T10:32:51.592Z,93585.50
2022-11-04T10:33:53.657Z,93562.75
2022-11-04T10:35:13.987Z,93578.13
2022-11-04T10:36:12.900Z,93493.16
2022-11-04T10:37:12.572Z,93565.28
2022-11-04T10:38:39.476Z,93572.97
2022-11-04T10:39:40.062Z,93570.22
2022-11-04T10:40:39.936Z,93562.56
2022-11-04T10:41:41.001Z,93559.84
2022-11-04T10:42:37.628Z,93552.38
2022-11-04T10:43:38.260Z,93556.06
2022-11-04T10:44:37.189Z,93556.81
2022-11-04T10:45:44.987Z,93559.84
2022-11-04T10:46:50.513Z,93552.72
2022-11-04T10:48:01.287Z,93548.09
2022-11-04T10:49:12.594Z,93548.06
2022-11-04T10:50:29.902Z,93549.19
2022-11-04T10:51:27.252Z,93530.91
2022-11-04T10:52:23.901Z,93538.69
2022-11-04T10:53:25.979Z,93517.13
2022-11-04T10:54:26.806Z,93546.50
2022-11-04T10:56:08.061Z,93538.88
2022-11-04T10:57:04.759Z,93499.97
2022-11-04T10:58:01.657Z,93492.72
2022-11-04T10:59:08.751Z,93531.59
2022-11-04T11:00:06.383Z,93525.50
2022-11-04T11:01:24.830Z,93525.16
2022-11-04T11:02:45.856Z,93533.97
2022-11-04T11:03:42.498Z,93527.31
2022-11-04T11:04:40.460Z,93514.63
2022-11-04T11:05:37.152Z,93501.09
2022-11-04T11:06:35.907Z,93485.66
2022-11-04T11:07:37.058Z,93503.09
2022-11-04T11:08:37.274Z,93496.81
2022-11-04T11:09:37.293Z,93484.41
2022-11-04T11:10:34.878Z,93481.25
2022-11-04T11:11:47.711Z,93501.97
2022-11-04T11:12:52.281Z,93486.78
2022-11-04T11:13:48.978Z,93503.53
2022-11-04T11:14:47.620Z,93505.25
2022-11-04T11:15:44.611Z,93493.38
2022-11-04T11:16:41.226Z,93493.81
2022-11-04T11:17:38.579Z,93494.28
2022-11-04T11:18:37.217Z,93492.09
2022-11-04T11:19:45.921Z,93465.72
2022-11-04T11:20:49.045Z,93497.41
2022-11-04T11:21:49.124Z,93482.91
2022-11-04T11:22:47.483Z,93473.75
2022-11-04T11:23:49.202Z,93488.09
2022-11-04T11:24:45.766Z,93469.56
2022-11-04T11:25:50.332Z,93475.16
2022-11-04T11:26:49.845Z,93475.69
2022-11-04T11:27:50.235Z,93480.69
2022-11-04T11:28:59.910Z,93472.44
2022-11-04T11:29:56.561Z,93473.69
2022-11-04T11:30:59.059Z,93468.06
2022-11-04T11:31:56.545Z,93468.44
2022-11-04T11:32:57.613Z,93460.38
2022-11-04T11:34:02.527Z,93471.97
2022-11-04T11:35:03.498Z,93466.16
2022-11-04T11:36:20.800Z,93462.72
2022-11-04T11:37:24.737Z,93459.00
2022-11-04T11:38:24.473Z,93432.75
2022-11-04T11:39:24.501Z,93439.75
2022-11-04T11:40:29.266Z,93452.34
2022-11-04T11:41:31.731Z,93454.06
2022-11-04T11:42:28.450Z,93447.69
2022-11-04T11:43:31.464Z,93401.03
2022-11-04T11:44:31.656Z,93441.78
2022-11-04T11:45:29.513Z,93438.53
2022-11-04T11:46:30.446Z,93438.13
2022-11-04T11:47:29.776Z,93436.75
2022-11-04T11:48:39.927Z,93443.13
2022-11-04T11:49:38.135Z,93439.28
2022-11-04T11:50:35.764Z,93435.47
2022-11-04T11:51:36.651Z,93438.16
2022-11-04T11:52:38.182Z,93436.84
2022-11-04T11:53:38.262Z,93426.41
2022-11-04T11:54:37.745Z,93423.09
2022-11-04T11:55:38.538Z,93410.38
2022-11-04T11:57:07.265Z,93431.56
2022-11-04T12:01:32.247Z,93422.69
2022-11-04T12:02:43.139Z,93424.44
2022-11-04T12:10:50.356Z,93391.13
2022-11-04T12:11:54.429Z,93417.69
2022-11-04T12:12:58.511Z,93417.59
2022-11-04T12:13:59.757Z,93408.66